createdAt,value
2023-12-27T00:00:10.653Z,13.43
2023-12-27T00:01:10.810Z,13.31
2023-12-27T00:02:10.973Z,13.20
2023-12-27T00:03:11.220Z,13.12
2023-12-27T00:04:11.372Z,13.03
2023-12-27T00:05:11.530Z,12.94
2023-12-27T00:06:11.792Z,12.85
2023-12-27T00:07:11.932Z,12.74
2023-12-27T00:08:12.087Z,12.69
2023-12-27T00:09:12.273Z,12.57
2023-12-27T00:10:12.452Z,12.53
2023-12-27T00:11:12.649Z,12.44
2023-12-27T00:12:13.334Z,12.38
2023-12-27T00:13:13.027Z,12.27
2023-12-27T00:14:13.235Z,12.20
2023-12-27T00:15:13.413Z,12.12
2023-12-27T00:16:13.591Z,12.06
2023-12-27T00:17:14.764Z,12.01
2023-12-27T00:18:14.096Z,11.88
2023-12-27T00:19:14.401Z,11.84
2023-12-27T00:20:14.384Z,11.81
2023-12-27T00:21:14.571Z,11.76
2023-12-27T00:22:15.218Z,11.66
2023-12-27T00:23:14.914Z,11.61
2023-12-27T00:24:15.188Z,11.54
2023-12-27T00:25:15.311Z,11.55
2023-12-27T00:26:15.492Z,11.46
2023-12-27T00:27:15.731Z,11.41
2023-12-27T00:28:15.894Z,11.32
2023-12-27T00:29:16.054Z,11.31
2023-12-27T00:30:16.335Z,11.24
2023-12-27T00:31:16.451Z,11.24
2023-12-27T00:32:16.614Z,11.14
2023-12-27T00:33:16.911Z,11.16
2023-12-27T00:34:17.139Z,11.06
2023-12-27T00:35:17.203Z,11.06
2023-12-27T00:36:17.445Z,11.01
2023-12-27T00:37:17.536Z,10.96
2023-12-27T00:38:17.757Z,10.94
2023-12-27T00:39:18.063Z,10.85
2023-12-27T00:40:18.138Z,10.87
2023-12-27T00:41:18.352Z,10.84
2023-12-27T00:42:18.589Z,10.79
2023-12-27T00:43:18.685Z,10.79
2023-12-27T00:44:18.857Z,10.70
2023-12-27T00:45:19.092Z,10.67
2023-12-27T00:46:19.266Z,10.66
2023-12-27T00:47:19.419Z,10.61
2023-12-27T00:48:19.662Z,10.59
2023-12-27T00:49:19.901Z,10.56
2023-12-27T00:50:19.972Z,10.54
2023-12-27T00:51:20.275Z,10.44
2023-12-27T00:52:20.394Z,10.48
2023-12-27T00:53:20.567Z,10.43
2023-12-27T00:54:21.736Z,10.43
2023-12-27T00:55:20.888Z,10.40
2023-12-27T00:56:21.098Z,10.34
2023-12-27T00:57:21.320Z,10.33
2023-12-27T00:58:21.461Z,10.29
2023-12-27T00:59:21.659Z,10.33
2023-12-27T01:00:21.922Z,10.30
2023-12-27T01:01:22.080Z,10.22
2023-12-27T01:02:22.230Z,10.22
2023-12-27T01:03:22.556Z,10.19
2023-12-27T01:04:22.667Z,10.18
2023-12-27T01:05:22.851Z,10.16
2023-12-27T01:06:23.059Z,10.12
2023-12-27T01:07:23.170Z,10.12
2023-12-27T01:08:23.328Z,10.07
2023-12-27T01:09:23.574Z,10.05
2023-12-27T01:10:23.726Z,10.01
2023-12-27T01:11:23.938Z,9.97
2023-12-27T01:12:24.149Z,9.98
2023-12-27T01:13:24.261Z,9.94
2023-12-27T01:14:24.455Z,9.94
2023-12-27T01:15:24.696Z,9.94
2023-12-27T01:16:24.856Z,9.87
2023-12-27T01:17:25.134Z,9.88
2023-12-27T01:18:25.392Z,9.85
2023-12-27T01:19:25.531Z,9.82
2023-12-27T01:20:25.625Z,9.79
2023-12-27T01:21:25.827Z,9.78
2023-12-27T01:22:25.961Z,9.77
2023-12-27T01:23:26.128Z,9.70
2023-12-27T01:24:26.361Z,9.72
2023-12-27T01:25:26.466Z,9.72
2023-12-27T01:26:26.673Z,9.70
2023-12-27T01:27:26.879Z,9.67
2023-12-27T01:28:27.023Z,9.67
2023-12-27T01:29:27.221Z,9.64
2023-12-27T01:30:27.535Z,9.59
2023-12-27T01:31:27.669Z,9.57
2023-12-27T01:32:27.867Z,9.57
2023-12-27T01:33:28.175Z,9.60
2023-12-27T01:34:28.243Z,9.60
2023-12-27T01:35:28.352Z,9.54
2023-12-27T01:36:28.601Z,9.56
2023-12-27T01:37:28.696Z,9.49
2023-12-27T01:38:28.902Z,9.48
2023-12-27T01:39:29.112Z,9.48
2023-12-27T01:40:29.286Z,9.49
2023-12-27T01:41:29.497Z,9.46
2023-12-27T01:42:29.692Z,9.45
2023-12-27T01:43:29.852Z,9.48
2023-12-27T01:44:30.018Z,9.45
2023-12-27T01:45:30.278Z,9.41
2023-12-27T01:46:30.421Z,9.38
2023-12-27T01:47:30.633Z,9.39
2023-12-27T01:48:30.952Z,9.36
2023-12-27T01:49:31.107Z,9.35
2023-12-27T01:50:31.144Z,9.35
2023-12-27T01:51:31.532Z,9.36
2023-12-27T01:52:31.551Z,9.35
2023-12-27T01:53:31.693Z,9.35
2023-12-27T01:54:32.005Z,9.30
2023-12-27T01:55:32.103Z,9.28
2023-12-27T01:56:32.287Z,9.31
2023-12-27T01:57:32.463Z,9.28
2023-12-27T01:58:32.638Z,9.30
2023-12-27T01:59:32.817Z,9.27
2023-12-27T02:00:33.032Z,9.27
2023-12-27T02:01:33.225Z,9.21
2023-12-27T02:02:33.356Z,9.23
2023-12-27T02:03:33.663Z,9.24
2023-12-27T02:04:33.797Z,9.20
2023-12-27T02:05:34.003Z,9.21
2023-12-27T02:06:34.297Z,9.20
2023-12-27T02:07:34.275Z,9.17
2023-12-27T02:08:34.475Z,9.19
2023-12-27T02:09:34.730Z,9.17
2023-12-27T02:10:35.804Z,9.12
2023-12-27T02:11:36.006Z,9.17
2023-12-27T02:12:35.356Z,9.16
2023-12-27T02:13:35.389Z,9.12
2023-12-27T02:14:35.553Z,9.12
2023-12-27T02:15:35.879Z,9.13
2023-12-27T02:16:35.970Z,9.13
2023-12-27T02:17:36.223Z,9.12
2023-12-27T02:18:36.438Z,9.11
2023-12-27T02:19:36.581Z,9.11
2023-12-27T02:20:36.707Z,9.08
2023-12-27T02:21:36.945Z,9.09
2023-12-27T02:22:37.085Z,9.13
2023-12-27T02:23:37.244Z,9.05
2023-12-27T02:24:37.461Z,9.08
2023-12-27T02:25:37.605Z,9.05
2023-12-27T02:26:37.836Z,9.02
2023-12-27T02:27:38.051Z,9.06
2023-12-27T02:28:38.193Z,9.02
2023-12-27T02:29:38.352Z,9.02
2023-12-27T02:30:38.624Z,9.02
2023-12-27T02:31:39.760Z,9.02
2023-12-27T02:32:39.093Z,9.01
2023-12-27T02:33:39.320Z,8.99
2023-12-27T02:34:40.565Z,9.02
2023-12-27T02:35:39.508Z,9.02
2023-12-27T02:36:39.772Z,8.95
2023-12-27T02:37:39.903Z,8.98
2023-12-27T02:38:40.079Z,8.93
2023-12-27T02:39:40.305Z,8.95
2023-12-27T02:40:40.459Z,8.94
2023-12-27T02:41:40.656Z,8.93
2023-12-27T02:42:40.847Z,8.91
2023-12-27T02:43:41.053Z,8.94
2023-12-27T02:44:41.243Z,8.91
2023-12-27T02:45:41.468Z,8.90
2023-12-27T02:46:41.596Z,8.91
2023-12-27T02:47:41.790Z,8.90
2023-12-27T02:48:43.040Z,8.88
2023-12-27T02:49:43.179Z,8.90
2023-12-27T02:50:42.343Z,8.88
2023-12-27T02:51:42.510Z,8.90
2023-12-27T02:52:42.700Z,8.88
2023-12-27T02:53:42.863Z,8.86
2023-12-27T02:54:43.081Z,8.87
2023-12-27T02:55:43.226Z,8.87
2023-12-27T02:56:43.405Z,8.87
2023-12-27T02:57:43.594Z,8.84
2023-12-27T02:58:43.790Z,8.83
2023-12-27T02:59:44.006Z,8.84
2023-12-27T03:00:44.382Z,8.84
2023-12-27T03:01:44.365Z,8.84
2023-12-27T03:02:44.565Z,8.84
2023-12-27T03:03:44.694Z,8.83
2023-12-27T03:04:44.913Z,8.80
2023-12-27T03:05:45.091Z,8.80
2023-12-27T03:06:45.282Z,8.83
2023-12-27T03:07:45.447Z,8.80
2023-12-27T03:08:45.621Z,8.76
2023-12-27T03:09:45.791Z,8.80
2023-12-27T03:10:45.977Z,8.73
2023-12-27T03:11:46.170Z,8.78
2023-12-27T03:12:46.378Z,8.80
2023-12-27T03:13:46.542Z,8.78
2023-12-27T03:14:46.771Z,8.80
2023-12-27T03:15:46.946Z,8.72
2023-12-27T03:16:47.127Z,8.76
2023-12-27T03:17:47.396Z,8.76
2023-12-27T03:18:47.627Z,8.76
2023-12-27T03:19:48.690Z,8.70
2023-12-27T03:20:47.926Z,8.75
2023-12-27T03:21:48.080Z,8.75
2023-12-27T03:22:48.286Z,8.73
2023-12-27T03:23:48.435Z,8.75
2023-12-27T03:24:48.646Z,8.72
2023-12-27T03:25:48.812Z,8.72
2023-12-27T03:26:49.007Z,8.69
2023-12-27T03:27:49.218Z,8.69
2023-12-27T03:28:49.485Z,8.69
2023-12-27T03:29:49.616Z,8.68
2023-12-27T03:30:49.957Z,8.68
2023-12-27T03:31:49.929Z,8.66
2023-12-27T03:32:50.229Z,8.62
2023-12-27T03:33:50.522Z,8.65
2023-12-27T03:34:50.513Z,8.65
2023-12-27T03:35:50.696Z,8.68
2023-12-27T03:36:50.848Z,8.60
2023-12-27T03:37:51.068Z,8.63
2023-12-27T03:38:51.239Z,8.63
2023-12-27T03:39:51.399Z,8.60
2023-12-27T03:40:51.557Z,8.63
2023-12-27T03:41:51.746Z,8.68
2023-12-27T03:42:51.943Z,8.62
2023-12-27T03:43:52.123Z,8.68
2023-12-27T03:44:52.295Z,8.66
2023-12-27T03:45:52.469Z,8.63
2023-12-27T03:46:52.692Z,8.68
2023-12-27T03:47:52.897Z,8.69
2023-12-27T03:48:53.080Z,8.68
2023-12-27T03:49:53.234Z,8.65
2023-12-27T03:50:53.393Z,8.68
2023-12-27T03:51:53.550Z,8.66
2023-12-27T03:52:53.751Z,8.68
2023-12-27T03:53:53.934Z,8.62
2023-12-27T03:54:54.100Z,8.65
2023-12-27T03:55:54.281Z,8.62
2023-12-27T03:56:54.470Z,8.60
2023-12-27T03:57:54.866Z,8.65
2023-12-27T03:58:54.847Z,8.60
2023-12-27T03:59:55.055Z,8.58
2023-12-27T04:00:55.206Z,8.60
2023-12-27T04:01:55.369Z,8.62
2023-12-27T04:02:55.606Z,8.60
2023-12-27T04:03:55.766Z,8.60
2023-12-27T04:04:55.921Z,8.63
2023-12-27T04:05:57.111Z,8.58
2023-12-27T04:06:56.266Z,8.57
2023-12-27T04:07:56.771Z,8.60
2023-12-27T04:08:56.631Z,8.58
2023-12-27T04:09:56.868Z,8.54
2023-12-27T04:10:57.020Z,8.57
2023-12-27T04:11:57.242Z,8.55
2023-12-27T04:12:57.420Z,8.60
2023-12-27T04:13:57.608Z,8.55
2023-12-27T04:14:57.878Z,8.54
2023-12-27T04:15:57.986Z,8.54
2023-12-27T04:16:58.177Z,8.52
2023-12-27T04:17:58.720Z,8.57
2023-12-27T04:18:58.690Z,8.57
2023-12-27T04:19:58.765Z,8.52
2023-12-27T04:20:58.971Z,8.54
2023-12-27T04:21:59.103Z,8.52
2023-12-27T04:22:59.306Z,8.52
2023-12-27T04:23:59.479Z,8.49
2023-12-27T04:24:59.666Z,8.47
2023-12-27T04:25:59.853Z,8.51
2023-12-27T04:27:00.023Z,8.46
2023-12-27T04:28:00.397Z,8.49
2023-12-27T04:29:00.346Z,8.47
2023-12-27T04:30:00.824Z,8.49
2023-12-27T04:31:00.837Z,8.49
2023-12-27T04:32:00.889Z,8.46
2023-12-27T04:33:01.191Z,8.51
2023-12-27T04:34:01.313Z,8.49
2023-12-27T04:35:01.422Z,8.47
2023-12-27T04:36:01.668Z,8.46
2023-12-27T04:37:01.829Z,8.47
2023-12-27T04:38:02.007Z,8.43
2023-12-27T04:39:02.206Z,8.44
2023-12-27T04:40:02.398Z,8.44
2023-12-27T04:41:03.058Z,8.42
2023-12-27T04:42:02.762Z,8.42
2023-12-27T04:43:02.952Z,8.43
2023-12-27T04:44:03.125Z,8.43
2023-12-27T04:45:03.348Z,8.42
2023-12-27T04:46:03.513Z,8.35
2023-12-27T04:47:03.685Z,8.35
2023-12-27T04:48:04.098Z,8.35
2023-12-27T04:49:04.211Z,8.34
2023-12-27T04:50:04.461Z,8.34
2023-12-27T04:51:04.484Z,8.31
2023-12-27T04:52:04.637Z,8.34
2023-12-27T04:53:04.789Z,8.32
2023-12-27T04:54:05.011Z,8.35
2023-12-27T04:55:05.131Z,8.35
2023-12-27T04:56:05.315Z,8.34
2023-12-27T04:57:05.521Z,8.29
2023-12-27T04:58:05.630Z,8.29
2023-12-27T04:59:05.830Z,8.31
2023-12-27T05:00:06.109Z,8.29
2023-12-27T05:01:06.743Z,8.31
2023-12-27T05:02:06.405Z,8.29
2023-12-27T05:03:07.997Z,8.28
2023-12-27T05:04:06.924Z,8.28
2023-12-27T05:05:06.932Z,8.28
2023-12-27T05:06:07.206Z,8.25
2023-12-27T05:07:07.334Z,8.24
2023-12-27T05:08:07.492Z,8.22
2023-12-27T05:09:07.701Z,8.24
2023-12-27T05:10:07.862Z,8.24
2023-12-27T05:11:08.017Z,8.26
2023-12-27T05:12:08.268Z,8.18
2023-12-27T05:13:08.371Z,8.24
2023-12-27T05:14:08.540Z,8.24
2023-12-27T05:15:08.790Z,8.20
2023-12-27T05:16:08.935Z,8.22
2023-12-27T05:17:09.109Z,8.18
2023-12-27T05:18:09.362Z,8.22
2023-12-27T05:19:09.513Z,8.18
2023-12-27T05:20:09.620Z,8.14
2023-12-27T05:21:09.803Z,8.16
2023-12-27T05:22:09.997Z,8.18
2023-12-27T05:23:10.655Z,8.18
2023-12-27T05:24:10.497Z,8.14
2023-12-27T05:25:10.542Z,8.14
2023-12-27T05:26:10.719Z,8.13
2023-12-27T05:27:10.965Z,8.17
2023-12-27T05:28:11.096Z,8.14
2023-12-27T05:29:11.306Z,8.11
2023-12-27T05:30:11.562Z,8.09
2023-12-27T05:31:11.934Z,8.09
2023-12-27T05:32:11.973Z,8.13
2023-12-27T05:33:12.189Z,8.13
2023-12-27T05:34:12.344Z,8.11
2023-12-27T05:35:12.419Z,8.10
2023-12-27T05:36:12.719Z,8.07
2023-12-27T05:37:12.845Z,8.10
2023-12-27T05:38:12.982Z,8.09
2023-12-27T05:39:13.227Z,8.10
2023-12-27T05:40:13.360Z,8.07
2023-12-27T05:41:13.555Z,8.09
2023-12-27T05:42:13.773Z,8.09
2023-12-27T05:43:13.917Z,8.04
2023-12-27T05:44:14.109Z,8.04
2023-12-27T05:45:14.390Z,8.06
2023-12-27T05:46:14.495Z,8.09
2023-12-27T05:47:14.707Z,8.02
2023-12-27T05:48:14.957Z,8.07
2023-12-27T05:49:15.174Z,8.02
2023-12-27T05:50:15.246Z,8.01
2023-12-27T05:51:15.417Z,8.01
2023-12-27T05:52:16.089Z,7.99
2023-12-27T05:53:15.770Z,8.01
2023-12-27T05:54:15.999Z,8.02
2023-12-27T05:55:16.166Z,7.98
2023-12-27T05:56:16.361Z,7.99
2023-12-27T05:57:16.563Z,7.99
2023-12-27T05:58:16.703Z,7.98
2023-12-27T05:59:16.913Z,7.96
2023-12-27T06:00:17.118Z,7.96
2023-12-27T06:01:17.283Z,7.98
2023-12-27T06:02:17.466Z,7.98
2023-12-27T06:03:17.969Z,7.98
2023-12-27T06:04:17.839Z,7.95
2023-12-27T06:05:18.092Z,7.93
2023-12-27T06:06:18.230Z,7.92
2023-12-27T06:07:18.408Z,7.93
2023-12-27T06:08:18.615Z,7.91
2023-12-27T06:09:18.783Z,7.93
2023-12-27T06:10:18.968Z,7.92
2023-12-27T06:11:19.114Z,7.91
2023-12-27T06:12:19.400Z,7.88
2023-12-27T06:13:19.488Z,7.91
2023-12-27T06:14:19.685Z,7.92
2023-12-27T06:15:19.977Z,7.91
2023-12-27T06:16:20.046Z,7.92
2023-12-27T06:17:20.267Z,7.92
2023-12-27T06:18:20.487Z,7.91
2023-12-27T06:19:20.629Z,7.88
2023-12-27T06:20:20.803Z,7.88
2023-12-27T06:21:21.000Z,7.88
2023-12-27T06:22:21.684Z,7.86
2023-12-27T06:23:21.367Z,7.85
2023-12-27T06:24:21.578Z,7.89
2023-12-27T06:25:21.718Z,7.86
2023-12-27T06:26:21.904Z,7.81
2023-12-27T06:27:22.125Z,7.80
2023-12-27T06:28:22.286Z,7.83
2023-12-27T06:29:22.468Z,7.83
2023-12-27T06:30:22.796Z,7.80
2023-12-27T06:31:25.213Z,7.80
2023-12-27T06:32:23.023Z,7.77
2023-12-27T06:33:23.314Z,7.78
2023-12-27T06:34:23.486Z,7.78
2023-12-27T06:35:23.583Z,7.78
2023-12-27T06:36:23.771Z,7.78
2023-12-27T06:37:24.009Z,7.75
2023-12-27T06:38:24.641Z,7.78
2023-12-27T06:39:24.344Z,7.74
2023-12-27T06:40:24.541Z,7.74
2023-12-27T06:41:24.712Z,7.75
2023-12-27T06:42:24.930Z,7.75
2023-12-27T06:43:25.056Z,7.70
2023-12-27T06:44:25.268Z,7.73
2023-12-27T06:45:25.504Z,7.70
2023-12-27T06:46:25.630Z,7.73
2023-12-27T06:47:25.923Z,7.73
2023-12-27T06:48:26.136Z,7.71
2023-12-27T06:49:26.308Z,7.68
2023-12-27T06:50:26.345Z,7.71
2023-12-27T06:51:26.559Z,7.71
2023-12-27T06:52:26.741Z,7.68
2023-12-27T06:53:26.915Z,7.65
2023-12-27T06:54:27.143Z,7.70
2023-12-27T06:55:27.342Z,7.67
2023-12-27T06:56:27.511Z,7.68
2023-12-27T06:57:27.733Z,7.63
2023-12-27T06:58:27.854Z,7.67
2023-12-27T06:59:28.042Z,7.67
2023-12-27T07:00:28.262Z,7.63
2023-12-27T07:01:28.469Z,7.65
2023-12-27T07:02:28.627Z,7.60
2023-12-27T07:03:28.864Z,7.67
2023-12-27T07:04:28.978Z,7.65
2023-12-27T07:05:29.221Z,7.60
2023-12-27T07:06:29.328Z,7.63
2023-12-27T07:07:29.506Z,7.65
2023-12-27T07:08:29.699Z,7.62
2023-12-27T07:09:29.904Z,7.60
2023-12-27T07:10:30.076Z,7.58
2023-12-27T07:11:30.760Z,7.65
2023-12-27T07:12:30.433Z,7.60
2023-12-27T07:13:30.573Z,7.60
2023-12-27T07:14:30.762Z,7.59
2023-12-27T07:15:30.952Z,7.58
2023-12-27T07:16:31.118Z,7.59
2023-12-27T07:17:31.324Z,7.60
2023-12-27T07:18:31.619Z,7.58
2023-12-27T07:19:31.742Z,7.56
2023-12-27T07:20:31.839Z,7.58
2023-12-27T07:21:32.078Z,7.63
2023-12-27T07:22:32.202Z,7.60
2023-12-27T07:23:32.383Z,7.60
2023-12-27T07:24:32.637Z,7.58
2023-12-27T07:25:32.738Z,7.59
2023-12-27T07:26:32.925Z,7.58
2023-12-27T07:27:33.141Z,7.63
2023-12-27T07:28:33.307Z,7.60
2023-12-27T07:29:33.458Z,7.60
2023-12-27T07:30:33.704Z,7.65
2023-12-27T07:31:33.893Z,7.62
2023-12-27T07:32:34.082Z,7.60
2023-12-27T07:33:34.214Z,7.67
2023-12-27T07:34:34.425Z,7.67
2023-12-27T07:35:34.593Z,7.67
2023-12-27T07:36:34.813Z,7.67
2023-12-27T07:37:34.930Z,7.68
2023-12-27T07:38:35.103Z,7.68
2023-12-27T07:39:35.305Z,7.74
2023-12-27T07:40:35.446Z,7.75
2023-12-27T07:41:35.630Z,7.67
2023-12-27T07:42:35.829Z,7.74
2023-12-27T07:43:35.975Z,7.73
2023-12-27T07:44:36.159Z,7.74
2023-12-27T07:45:36.389Z,7.77
2023-12-27T07:46:36.533Z,7.81
2023-12-27T07:47:36.756Z,7.83
2023-12-27T07:48:37.106Z,7.88
2023-12-27T07:49:37.231Z,7.88
2023-12-27T07:50:37.237Z,7.91
2023-12-27T07:51:37.465Z,7.96
2023-12-27T07:52:37.610Z,7.95
2023-12-27T07:53:37.759Z,7.98
2023-12-27T07:54:37.993Z,7.98
2023-12-27T07:55:38.139Z,8.01
2023-12-27T07:56:38.310Z,8.01
2023-12-27T07:57:38.635Z,8.11
2023-12-27T07:58:38.713Z,8.09
2023-12-27T07:59:38.895Z,8.18
2023-12-27T08:00:39.216Z,8.32
2023-12-27T08:01:39.274Z,8.39
2023-12-27T08:02:39.440Z,8.49
2023-12-27T08:03:39.714Z,8.60
2023-12-27T08:04:39.770Z,8.76
2023-12-27T08:05:40.009Z,8.84
2023-12-27T08:06:40.200Z,8.94
2023-12-27T08:07:40.367Z,9.08
2023-12-27T08:08:40.556Z,9.17
2023-12-27T08:09:40.770Z,9.33
2023-12-27T08:10:41.442Z,9.42
2023-12-27T08:11:41.098Z,9.51
2023-12-27T08:12:44.271Z,9.66
2023-12-27T08:13:41.483Z,9.82
2023-12-27T08:14:41.666Z,9.94
2023-12-27T08:15:41.922Z,10.04
2023-12-27T08:16:42.048Z,10.16
2023-12-27T08:17:42.313Z,10.31
2023-12-27T08:19:57.553Z,10.51
2023-12-27T08:20:57.652Z,10.58
2023-12-27T08:21:57.843Z,10.69
2023-12-27T08:22:58.049Z,10.76
2023-12-27T08:23:58.216Z,10.85
2023-12-27T08:24:58.388Z,10.94
2023-12-27T08:25:58.586Z,10.98
2023-12-27T08:26:58.822Z,11.07
2023-12-27T08:27:59.200Z,11.14
2023-12-27T08:28:59.152Z,11.25
2023-12-27T08:29:59.375Z,11.35
2023-12-27T08:30:59.698Z,11.43
2023-12-27T08:31:59.733Z,11.47
2023-12-27T08:33:00.010Z,11.57
2023-12-27T08:34:00.446Z,11.68
2023-12-27T08:35:00.289Z,11.75
2023-12-27T08:36:00.512Z,11.87
2023-12-27T08:37:00.678Z,11.98
2023-12-27T08:38:01.265Z,12.08
2023-12-27T08:39:01.066Z,12.16
2023-12-27T08:40:01.204Z,12.26
2023-12-27T08:41:01.385Z,12.24
2023-12-27T08:42:01.584Z,12.34
2023-12-27T08:43:01.748Z,12.42
2023-12-27T08:44:01.996Z,12.46
2023-12-27T08:45:02.279Z,12.45
2023-12-27T08:46:02.308Z,12.49
2023-12-27T08:47:02.496Z,12.53
2023-12-27T08:48:02.982Z,12.61
2023-12-27T08:49:02.925Z,12.67
2023-12-27T08:50:05.721Z,12.80
2023-12-27T08:51:03.254Z,12.83
2023-12-27T08:52:03.449Z,12.86
2023-12-27T08:53:03.621Z,12.94
2023-12-27T08:54:03.902Z,12.97
2023-12-27T08:55:04.011Z,13.03
2023-12-27T08:56:04.206Z,13.07
2023-12-27T08:57:04.417Z,13.16
2023-12-27T08:58:04.577Z,13.16
2023-12-27T08:59:04.969Z,13.22
2023-12-27T09:00:04.998Z,13.23
2023-12-27T09:01:05.351Z,13.27
2023-12-27T09:02:05.391Z,13.25
2023-12-27T09:03:05.706Z,13.27
2023-12-27T09:04:05.836Z,13.25
2023-12-27T09:05:05.917Z,13.28
2023-12-27T09:06:06.189Z,13.27
2023-12-27T09:07:06.374Z,13.25
2023-12-27T09:08:13.467Z,13.27
2023-12-27T09:09:06.711Z,13.27
2023-12-27T09:10:06.868Z,13.31
2023-12-27T09:11:07.065Z,13.23
2023-12-27T09:12:07.278Z,13.27
2023-12-27T09:13:07.439Z,13.25
2023-12-27T09:14:07.627Z,13.23
2023-12-27T09:15:07.917Z,13.27
2023-12-27T09:16:07.996Z,13.23
2023-12-27T09:17:08.179Z,13.27
2023-12-27T09:18:08.501Z,13.20
2023-12-27T09:19:08.679Z,13.20
2023-12-27T09:20:09.039Z,13.23
2023-12-27T09:21:08.946Z,13.19
2023-12-27T09:22:09.159Z,13.25
2023-12-27T09:23:09.292Z,13.25
2023-12-27T09:24:09.469Z,13.31
2023-12-27T09:25:09.703Z,13.31
2023-12-27T09:26:09.806Z,13.48
2023-12-27T09:27:10.024Z,13.59
2023-12-27T09:28:10.180Z,13.70
2023-12-27T09:29:10.616Z,13.80
2023-12-27T09:30:10.699Z,13.91
2023-12-27T09:31:10.888Z,14.04
2023-12-27T09:32:10.991Z,14.18
2023-12-27T09:33:11.778Z,14.34
2023-12-27T09:34:11.476Z,14.42
2023-12-27T09:35:11.488Z,14.52
2023-12-27T09:36:11.705Z,14.65
2023-12-27T09:37:11.845Z,14.80
2023-12-27T09:38:12.027Z,14.90
2023-12-27T09:39:12.237Z,14.98
2023-12-27T09:40:12.469Z,15.14
2023-12-27T09:41:12.592Z,15.20
2023-12-27T09:42:12.839Z,15.28
2023-12-27T09:43:12.964Z,15.35
2023-12-27T09:44:13.148Z,15.39
2023-12-27T09:45:13.379Z,15.49
2023-12-27T09:46:13.580Z,15.49
2023-12-27T09:47:13.748Z,15.54
2023-12-27T09:48:14.099Z,15.58
2023-12-27T09:49:14.241Z,15.63
2023-12-27T09:50:14.316Z,15.65
2023-12-27T09:51:16.304Z,15.73
2023-12-27T09:52:14.644Z,15.71
2023-12-27T09:53:14.855Z,15.73
2023-12-27T09:54:15.078Z,15.76
2023-12-27T09:55:15.232Z,15.73
2023-12-27T09:56:15.396Z,15.77
2023-12-27T09:57:15.577Z,15.76
2023-12-27T09:58:15.733Z,15.74
2023-12-27T09:59:15.916Z,15.74
2023-12-27T10:00:16.108Z,15.76
2023-12-27T10:01:16.301Z,15.73
2023-12-27T10:02:16.505Z,15.70
2023-12-27T10:03:16.758Z,15.74
2023-12-27T10:04:16.815Z,15.71
2023-12-27T10:05:17.058Z,15.71
2023-12-27T10:06:17.180Z,15.73
2023-12-27T10:07:17.355Z,15.73
2023-12-27T10:08:17.522Z,15.74
2023-12-27T10:09:18.276Z,15.71
2023-12-27T10:10:24.904Z,15.80
2023-12-27T10:11:19.110Z,15.79
2023-12-27T10:12:18.307Z,15.79
2023-12-27T10:13:18.451Z,15.86
2023-12-27T10:14:18.658Z,15.89
2023-12-27T10:15:18.972Z,15.86
2023-12-27T10:16:19.030Z,15.92
2023-12-27T10:17:19.225Z,15.89
2023-12-27T10:18:19.579Z,15.92
2023-12-27T10:19:19.616Z,15.91
2023-12-27T10:20:19.799Z,15.99
2023-12-27T10:21:20.043Z,16.01
2023-12-27T10:22:20.181Z,16.02
2023-12-27T10:23:20.337Z,15.99
2023-12-27T10:24:20.568Z,16.02
2023-12-27T10:25:20.747Z,16.04
2023-12-27T10:26:20.914Z,16.05
2023-12-27T10:27:21.138Z,16.07
2023-12-27T10:28:21.286Z,16.07
2023-12-27T10:29:21.490Z,16.09
2023-12-27T10:30:21.783Z,16.13
2023-12-27T10:31:21.945Z,16.19
2023-12-27T10:32:22.080Z,16.25
2023-12-27T10:33:27.696Z,16.39
2023-12-27T10:34:23.427Z,16.53
2023-12-27T10:35:22.628Z,16.60
2023-12-27T10:36:22.813Z,16.72
2023-12-27T10:37:22.946Z,16.82
2023-12-27T10:38:23.563Z,16.91
2023-12-27T10:39:23.363Z,16.96
2023-12-27T10:40:23.542Z,17.01
2023-12-27T10:41:23.683Z,17.06
2023-12-27T10:42:23.899Z,17.10
2023-12-27T10:43:24.072Z,17.12
2023-12-27T10:44:24.230Z,17.16
2023-12-27T10:45:24.464Z,17.17
2023-12-27T10:46:24.583Z,17.23
2023-12-27T10:47:24.909Z,17.21
2023-12-27T10:48:25.099Z,17.24
2023-12-27T10:49:25.290Z,17.25
2023-12-27T10:50:25.385Z,17.31
2023-12-27T10:51:27.639Z,17.31
2023-12-27T10:52:25.715Z,17.34
2023-12-27T10:53:25.884Z,17.38
2023-12-27T10:54:26.105Z,17.42
2023-12-27T10:55:26.302Z,17.43
2023-12-27T10:56:26.495Z,17.46
2023-12-27T10:57:29.005Z,17.50
2023-12-27T10:58:26.853Z,17.52
2023-12-27T10:59:27.062Z,17.58
2023-12-27T11:00:27.262Z,17.61
2023-12-27T11:01:27.445Z,17.64
2023-12-27T11:02:27.594Z,17.68
2023-12-27T11:03:30.440Z,17.67
2023-12-27T11:04:28.136Z,17.67
2023-12-27T11:05:28.165Z,17.75
2023-12-27T11:06:28.461Z,17.70
2023-12-27T11:07:28.504Z,17.71
2023-12-27T11:08:28.710Z,17.72
2023-12-27T11:09:28.919Z,17.72
2023-12-27T11:10:29.075Z,17.72
2023-12-27T11:11:29.299Z,17.68
2023-12-27T11:12:29.497Z,17.72
2023-12-27T11:13:29.631Z,17.75
2023-12-27T11:14:29.813Z,17.71
2023-12-27T11:15:31.467Z,17.71
2023-12-27T11:16:30.192Z,17.72
2023-12-27T11:17:30.338Z,17.70
2023-12-27T11:18:30.683Z,17.68
2023-12-27T11:19:30.734Z,17.68
2023-12-27T11:20:30.884Z,17.65
2023-12-27T11:21:31.149Z,17.68
2023-12-27T11:22:31.208Z,17.65
2023-12-27T11:23:31.372Z,17.60
2023-12-27T11:24:31.612Z,17.64
2023-12-27T11:25:31.716Z,17.60
2023-12-27T11:26:32.872Z,17.60
2023-12-27T11:27:32.121Z,17.58
2023-12-27T11:28:32.248Z,17.55
2023-12-27T11:29:32.432Z,17.50
2023-12-27T11:30:32.688Z,17.50
2023-12-27T11:31:32.845Z,17.49
2023-12-27T11:32:33.006Z,17.53
2023-12-27T11:33:33.793Z,17.49
2023-12-27T11:34:33.436Z,17.50
2023-12-27T11:35:33.545Z,17.42
2023-12-27T11:36:33.812Z,17.42
2023-12-27T11:37:33.930Z,17.43
2023-12-27T11:38:34.100Z,17.35
2023-12-27T11:39:34.342Z,17.39
2023-12-27T11:40:34.457Z,17.38
2023-12-27T11:41:34.636Z,17.32
2023-12-27T11:42:34.880Z,17.30
2023-12-27T11:43:35.008Z,17.28
2023-12-27T11:44:35.232Z,17.28
2023-12-27T11:45:35.417Z,17.31
2023-12-27T11:46:35.568Z,17.25
2023-12-27T11:47:35.859Z,17.31
2023-12-27T11:48:36.040Z,17.28
2023-12-27T11:49:36.218Z,17.32
2023-12-27T11:50:36.288Z,17.28
2023-12-27T11:51:36.557Z,17.30
2023-12-27T11:52:36.690Z,17.34
2023-12-27T11:53:36.854Z,17.38
2023-12-27T11:54:37.041Z,17.42
2023-12-27T11:55:37.227Z,17.43
2023-12-27T11:56:39.926Z,17.40
2023-12-27T11:57:37.583Z,17.49
2023-12-27T11:58:37.735Z,17.50
2023-12-27T11:59:37.907Z,17.55
2023-12-27T12:00:38.212Z,17.57
2023-12-27T12:01:38.352Z,17.61
2023-12-27T12:02:38.457Z,17.68
2023-12-27T12:03:38.686Z,17.75
2023-12-27T12:04:38.861Z,17.75
2023-12-27T12:05:39.045Z,17.78
2023-12-27T12:06:39.284Z,17.82
2023-12-27T12:07:39.339Z,17.85
2023-12-27T12:08:39.532Z,17.85
2023-12-27T12:09:39.852Z,17.92
2023-12-27T12:10:39.909Z,17.95
2023-12-27T12:11:40.095Z,17.98
2023-12-27T12:12:40.285Z,18.02
2023-12-27T12:13:40.438Z,18.02
2023-12-27T12:14:40.629Z,18.07
2023-12-27T12:15:40.877Z,18.10
2023-12-27T12:16:40.987Z,18.07
2023-12-27T12:17:41.292Z,18.13
2023-12-27T12:18:41.559Z,18.13
2023-12-27T12:19:41.702Z,18.15
2023-12-27T12:20:41.740Z,18.20
2023-12-27T12:21:42.070Z,18.22
2023-12-27T12:22:42.095Z,18.20
2023-12-27T12:23:42.282Z,18.23
2023-12-27T12:24:42.504Z,18.23
2023-12-27T12:25:42.617Z,18.22
2023-12-27T12:26:42.820Z,18.20
2023-12-27T12:27:43.006Z,18.15
2023-12-27T12:28:43.175Z,18.15
2023-12-27T12:29:43.331Z,18.13
2023-12-27T12:30:43.595Z,18.13
2023-12-27T12:31:43.744Z,18.08
2023-12-27T12:32:44.010Z,18.08
2023-12-27T12:33:44.196Z,18.05
2023-12-27T12:34:44.513Z,18.02
2023-12-27T12:35:44.438Z,18.04
2023-12-27T12:36:44.684Z,17.98
2023-12-27T12:37:44.823Z,17.98
2023-12-27T12:38:44.988Z,17.94
2023-12-27T12:39:45.232Z,17.92
2023-12-27T12:40:45.399Z,17.89
2023-12-27T12:41:45.571Z,17.85
2023-12-27T12:42:45.968Z,17.86
2023-12-27T12:43:45.916Z,17.87
2023-12-27T12:44:46.082Z,17.85
2023-12-27T12:45:46.392Z,17.85
2023-12-27T12:46:46.484Z,17.79
2023-12-27T12:47:46.713Z,17.72
2023-12-27T12:48:46.951Z,17.72
2023-12-27T12:49:47.060Z,17.65
2023-12-27T12:50:47.188Z,17.58
2023-12-27T12:51:47.448Z,17.61
2023-12-27T12:52:47.570Z,17.52
2023-12-27T12:53:47.760Z,17.47
2023-12-27T12:54:48.001Z,17.46
2023-12-27T12:55:48.128Z,17.40
2023-12-27T12:56:48.333Z,17.35
2023-12-27T12:57:48.603Z,17.31
2023-12-27T12:58:48.679Z,17.32
2023-12-27T12:59:48.878Z,17.30
2023-12-27T13:00:49.109Z,17.23
2023-12-27T13:01:49.276Z,17.20
2023-12-27T13:02:49.464Z,17.21
2023-12-27T13:03:49.774Z,17.15
2023-12-27T13:04:49.900Z,17.10
2023-12-27T13:05:50.004Z,17.01
2023-12-27T13:06:50.206Z,17.01
2023-12-27T13:07:50.411Z,16.93
2023-12-27T13:08:50.551Z,16.93
2023-12-27T13:09:50.765Z,16.86